Weipa City, Australia
Current Conditions -  °F | °C
As of 5:00 PM on Sunday 26 Oct 2014 (Local Time) from YBWP Reporting Station
Clear Clear  
Wind Chill: 82°   Ceiling: Unl
Heat Index: 85°   Visibility: 6mi
Dew Point: 68°   Wind: 12mph
Humidity: 62%   Direction: 290°WNW
Pressure: 29.83"   Gusts: NA
Location:  12.63°S, 141.88°E
Report Text: YBWP 260700Z AUTO 29010KT 9999 // NCD 28/20 Q1010
Loading
Personal Weather Stations






























Interactive Weather Map
Tropical Storm Tracking
New forecast layout! Learn more

10-Day Weather Forecast

Advertisements
Track Severe Weather on mobile